Time;durP1;ratioP1;P1;durP2;ratioP2;P2;SDS_P1;SDS_P2;PMS_P1;PMS_P2;Temp;Humidity;BMP_temperature;BMP_pressure;BME280_temperature;BME280_humidity;BME280_pressure;Samples;Min_cycle;Max_cycle;Signal;HPM_P1;HPM_P2
2022/10/19 00:00:44;;;;;;;9.50;3.45;;;;;;;10.09;73.72;101318.47;5017708;28;20629;-40
2022/10/19 00:03:11;;;;;;;7.50;3.70;;;;;;;10.09;75.18;101331.41;5019316;28;20738;-41
2022/10/19 00:05:37;;;;;;;9.40;3.45;;;;;;;10.09;74.73;101332.31;5022449;28;20061;-40
2022/10/19 00:08:04;;;;;;;6.45;2.53;;;;;;;10.02;76.13;101333.03;5025026;28;20049;-40
2022/10/19 00:10:31;;;;;;;7.97;3.33;;;;;;;10.02;76.55;101331.31;5007513;28;20140;-40
2022/10/19 00:12:58;;;;;;;8.73;2.85;;;;;;;10.06;76.26;101331.38;5026772;28;20080;-40
2022/10/19 00:15:25;;;;;;;6.07;2.22;;;;;;;10.07;76.67;101338.28;5022723;28;20467;-39
2022/10/19 00:17:51;;;;;;;5.25;2.95;;;;;;;10.07;76.32;101328.81;5016999;28;20137;-41
2022/10/19 00:20:18;;;;;;;5.97;2.67;;;;;;;10.14;75.54;101345.34;5025806;28;20564;-41
2022/10/19 00:22:48;;;;;;;9.13;2.88;;;;;;;10.17;75.20;101335.06;5018073;28;20080;-40
2022/10/19 00:25:15;;;;;;;;;;;;;;;10.06;76.84;101342.59;5023104;28;20445;-42
2022/10/19 00:27:41;;;;;;;9.07;2.20;;;;;;;10.16;76.20;101343.66;5026580;28;20360;-41
2022/10/19 00:30:08;;;;;;;4.80;3.00;;;;;;;10.21;75.73;101326.50;5022070;28;20049;-41
2022/10/19 00:32:35;;;;;;;5.22;2.70;;;;;;;10.21;75.21;101316.16;5019232;28;20057;-41
2022/10/19 00:35:02;;;;;;;6.60;3.03;;;;;;;10.23;75.04;101311.84;5023704;28;20041;-41
2022/10/19 00:37:29;;;;;;;11.80;3.67;;;;;;;10.23;75.22;101311.84;5026114;28;20544;-41
2022/10/19 00:39:55;;;;;;;9.23;3.25;;;;;;;10.25;75.09;101307.59;5016131;28;20077;-41
2022/10/19 00:42:22;;;;;;;15.27;3.67;;;;;;;10.25;74.97;101302.41;5025836;28;20049;-39
2022/10/19 00:47:24;;;;;;;9.02;1.80;;;;;;;10.29;74.65;101298.16;5081557;27;20131;-41
2022/10/19 00:49:51;;;;;;;6.45;2.03;;;;;;;10.32;74.15;101292.16;4999452;28;20080;-40
2022/10/19 00:52:21;;;;;;;5.30;1.95;;;;;;;10.34;74.48;101291.34;5000174;28;20050;-41
2022/10/19 00:54:49;;;;;;;;;;;;;;;10.21;74.82;101295.44;4999184;28;20396;-41
2022/10/19 00:57:16;;;;;;;7.72;2.30;;;;;;;10.30;74.86;101299.88;4997404;28;19968;-41
2022/10/19 00:59:45;;;;;;;8.85;1.88;;;;;;;10.32;74.47;101297.34;5001083;28;20126;-41
2022/10/19 01:02:12;;;;;;;10.77;2.42;;;;;;;10.33;74.32;101292.19;4994881;28;20144;-41
2022/10/19 01:04:43;;;;;;;10.45;2.97;;;;;;;10.36;74.18;101288.78;4999593;28;20549;-41
2022/10/19 01:07:11;;;;;;;8.55;2.33;;;;;;;10.36;74.86;101293.94;4992091;28;20137;-41
2022/10/19 01:09:38;;;;;;;10.52;2.58;;;;;;;10.36;73.49;101283.59;4991836;28;20046;-40
2022/10/19 01:12:39;;;;;;;7.45;2.42;;;;;;;10.29;73.91;101280.91;4988766;28;20623;-42
2022/10/19 01:15:31;;;;;;;7.38;2.35;;;;;;;10.27;74.14;101282.59;5019247;28;20046;-41
2022/10/19 01:18:19;;;;;;;5.90;2.35;;;;;;;10.26;73.66;101275.66;5018608;28;20077;-41
2022/10/19 01:37:22;;;;;;;6.63;2.78;;;;;;;10.16;74.08;101245.25;5082962;27;20130;-41
2022/10/19 01:39:58;;;;;;;6.20;2.95;;;;;;;10.18;74.53;101238.41;5031062;28;20148;-41
2022/10/19 01:48:02;;;;;;;11.63;4.40;;;;;;;10.38;74.41;101235.31;5119744;27;20389;-40
2022/10/19 01:53:07;;;;;;;8.73;2.55;;;;;;;10.18;74.58;101238.41;5118406;27;20135;-41
2022/10/19 01:55:39;;;;;;;6.20;3.10;;;;;;;10.15;74.51;101236.66;5063245;28;20639;-41
2022/10/19 01:58:08;;;;;;;7.50;3.08;;;;;;;10.12;74.55;101243.47;5064104;28;20087;-41
2022/10/19 02:00:40;;;;;;;6.60;2.78;;;;;;;10.10;75.16;101240.00;5063169;28;20047;-40
2022/10/19 02:03:09;;;;;;;8.88;2.80;;;;;;;10.07;74.88;101229.56;5060877;28;20041;-41
2022/10/19 02:05:37;;;;;;;10.57;2.25;;;;;;;10.07;74.49;101234.75;5073738;28;20102;-42
2022/10/19 02:08:12;;;;;;;7.50;2.55;;;;;;;10.06;74.91;101233.88;5060803;28;20102;-41
2022/10/19 02:10:42;;;;;;;5.03;2.08;;;;;;;10.07;74.77;101239.94;5061994;28;20052;-41
2022/10/19 02:13:13;;;;;;;7.43;2.33;;;;;;;10.06;74.26;101240.78;5060679;28;20045;-41
2022/10/19 02:15:44;;;;;;;6.80;2.70;;;;;;;10.07;74.18;101234.75;5063241;28;20049;-41
2022/10/19 02:18:14;;;;;;;6.35;1.85;;;;;;;10.06;74.52;101227.84;5063508;28;20068;-41
2022/10/19 02:20:41;;;;;;;6.32;2.15;;;;;;;10.03;74.21;101219.16;5060603;28;20076;-42
2022/10/19 02:23:08;;;;;;;8.73;2.60;;;;;;;10.03;74.64;101219.16;5061280;28;20127;-42
2022/10/19 02:25:35;;;;;;;9.18;2.25;;;;;;;10.02;74.34;101211.38;5063622;28;20087;-42
2022/10/19 02:28:04;;;;;;;7.47;2.55;;;;;;;10.03;74.57;101218.28;5059203;28;20087;-41
2022/10/19 02:30:30;;;;;;;6.18;1.83;;;;;;;10.00;74.51;101208.75;5062363;28;20049;-42
2022/10/19 02:32:57;;;;;;;14.00;2.50;;;;;;;10.02;74.65;101209.66;5063180;28;20076;-42
2022/10/19 02:35:24;;;;;;;4.00;2.15;;;;;;;10.02;74.38;101195.84;5060952;28;20137;-41
2022/10/19 02:37:51;;;;;;;5.40;1.75;;;;;;;10.01;74.59;101194.97;5059607;28;20047;-41
2022/10/19 02:40:17;;;;;;;8.63;1.70;;;;;;;10.02;74.41;101185.47;5079517;28;20043;-41
2022/10/19 02:42:51;;;;;;;5.75;2.13;;;;;;;10.02;74.24;101176.00;5081318;28;20070;-42
2022/10/19 02:45:24;;;;;;;3.63;1.85;;;;;;;10.02;74.28;101186.38;5079245;28;20084;-41
2022/10/19 02:47:57;;;;;;;4.80;1.92;;;;;;;10.02;74.41;101181.19;5081250;28;20393;-41
2022/10/19 02:50:24;;;;;;;4.80;1.55;;;;;;;10.00;74.55;101175.09;5083334;28;20060;-41
2022/10/19 02:52:51;;;;;;;5.43;2.10;;;;;;;10.00;74.50;101167.34;5083427;28;20135;-40
2022/10/19 02:55:17;;;;;;;8.25;1.42;;;;;;;10.01;74.75;101169.09;5082222;28;20086;-41
2022/10/19 02:57:44;;;;;;;6.60;2.15;;;;;;;10.05;73.79;101166.53;5079870;28;20342;-42
2022/10/19 03:00:11;;;;;;;7.38;3.00;;;;;;;10.05;73.85;101167.41;5078529;28;20075;-40
2022/10/19 03:02:37;;;;;;;3.72;1.30;;;;;;;10.05;74.18;101158.78;5074654;28;21123;-40
2022/10/19 03:05:04;;;;;;;4.63;1.45;;;;;;;10.06;74.16;101160.53;5068599;28;20087;-41
2022/10/19 03:07:31;;;;;;;5.85;1.73;;;;;;;10.03;74.18;101151.88;5068572;28;20139;-42
2022/10/19 03:09:58;;;;;;;4.93;1.77;;;;;;;10.01;74.59;101150.09;5066415;28;20079;-40
2022/10/19 03:12:25;;;;;;;5.35;1.60;;;;;;;10.02;74.31;101150.13;5065304;28;20072;-41
2022/10/19 03:14:51;;;;;;;7.47;2.92;;;;;;;10.03;74.70;101151.88;5068961;28;20514;-42
2022/10/19 03:17:18;;;;;;;8.15;1.70;;;;;;;10.01;74.66;101147.50;5065357;28;20115;-40
2022/10/19 03:19:45;;;;;;;7.00;1.33;;;;;;;10.05;74.66;101149.31;5069018;28;20040;-41
2022/10/19 03:22:13;;;;;;;3.55;1.33;;;;;;;10.07;74.29;101157.09;5068837;28;20064;-40
2022/10/19 03:24:40;;;;;;;5.43;1.10;;;;;;;10.05;74.57;101166.53;5065897;28;20047;-41
2022/10/19 03:27:07;;;;;;;3.92;1.10;;;;;;;10.03;74.28;101157.03;5064646;28;20164;-40
2022/10/19 03:29:33;;;;;;;4.03;1.75;;;;;;;10.08;74.39;101164.00;5065150;28;20127;-41
2022/10/19 03:32:00;;;;;;;4.25;1.30;;;;;;;10.10;74.69;101163.19;5065323;28;20048;-41
2022/10/19 03:34:27;;;;;;;4.00;1.23;;;;;;;10.12;74.69;101155.44;5068446;28;20053;-41
2022/10/19 03:36:55;;;;;;;5.38;1.35;;;;;;;10.14;74.61;101153.78;5066849;28;20044;-40
2022/10/19 03:39:22;;;;;;;4.43;1.83;;;;;;;10.16;74.24;101152.06;5065472;28;20128;-42
2022/10/19 03:41:48;;;;;;;5.45;1.05;;;;;;;10.16;74.44;101157.25;5066567;28;20127;-42
2022/10/19 03:44:15;;;;;;;4.40;1.38;;;;;;;10.17;74.54;101143.47;5068121;28;20080;-41
2022/10/19 03:46:42;;;;;;;3.47;1.48;;;;;;;10.18;74.54;101140.03;5068373;28;20702;-46
2022/10/19 03:49:09;;;;;;;5.38;1.33;;;;;;;10.21;74.31;101137.50;5067542;28;20055;-41
2022/10/19 03:51:35;;;;;;;2.20;0.80;;;;;;;10.22;73.96;101136.63;5068574;28;20119;-42
2022/10/19 03:54:06;;;;;;;1.60;0.90;;;;;;;10.24;74.59;101137.53;5067060;28;20137;-41
2022/10/19 03:56:34;;;;;;;3.08;2.03;;;;;;;10.25;74.24;101141.00;5062164;28;20464;-41
2022/10/19 03:59:02;;;;;;;6.55;2.55;;;;;;;10.25;74.09;101134.09;5066409;28;20228;-41
2022/10/19 04:04:11;;;;;;;9.80;1.75;;;;;;;10.24;74.28;101129.75;5083122;27;20123;-41
2022/10/19 04:06:41;;;;;;;4.00;1.27;;;;;;;10.26;74.68;101128.06;5058064;28;20072;-44
2022/10/19 04:09:10;;;;;;;;;;;;;;;10.17;74.20;101127.94;5057046;28;20072;-42
2022/10/19 04:11:37;;;;;;;4.07;2.20;;;;;;;10.25;74.68;101126.34;5052758;28;20007;-41
2022/10/19 04:14:03;;;;;;;3.30;1.20;;;;;;;10.26;74.17;101132.38;5059625;28;20079;-41
2022/10/19 04:16:31;;;;;;;5.88;1.05;;;;;;;10.27;74.83;101140.16;5077214;28;20477;-41
2022/10/19 04:18:58;;;;;;;5.35;1.40;;;;;;;10.28;74.11;101131.56;5054884;28;20068;-41
2022/10/19 04:21:27;;;;;;;2.88;1.60;;;;;;;10.29;74.80;101122.94;5050583;28;20132;-41
2022/10/19 04:24:03;;;;;;;3.65;1.23;;;;;;;10.30;74.38;101123.81;5060082;28;20124;-41
2022/10/19 04:26:30;;;;;;;5.82;1.25;;;;;;;10.32;74.78;101126.41;5051850;28;20087;-41
2022/10/19 04:28:58;;;;;;;4.25;0.93;;;;;;;10.27;74.88;101129.81;5056060;28;20069;-41
2022/10/19 04:31:27;;;;;;;5.50;1.63;;;;;;;10.34;74.94;101119.56;5049524;28;20045;-42
2022/10/19 04:33:53;;;;;;;8.80;1.83;;;;;;;10.34;75.35;101104.03;5053185;28;20095;-40
2022/10/19 04:36:20;;;;;;;4.38;1.48;;;;;;;10.34;75.12;101106.63;5057782;28;20048;-42
2022/10/19 04:38:47;;;;;;;3.75;1.00;;;;;;;10.37;74.92;101104.06;5076596;28;20109;-40
2022/10/19 04:41:17;;;;;;;3.33;1.30;;;;;;;10.39;74.61;101102.38;5077219;28;20051;-41
2022/10/19 04:43:44;;;;;;;5.95;1.10;;;;;;;10.37;74.03;101097.16;5076102;28;20122;-41
2022/10/19 04:46:17;;;;;;;3.75;1.00;;;;;;;10.36;74.32;101091.94;5075142;28;20135;-41
2022/10/19 04:48:46;;;;;;;4.97;1.27;;;;;;;10.34;74.22;101099.69;5076873;28;20065;-41
2022/10/19 04:51:13;;;;;;;2.47;1.15;;;;;;;10.32;73.96;101095.34;5074804;28;20067;-42
2022/10/19 04:53:41;;;;;;;4.55;0.95;;;;;;;10.29;74.07;101085.81;5078113;28;20048;-42
2022/10/19 04:56:11;;;;;;;2.63;1.40;;;;;;;10.29;73.88;101086.69;5075039;28;20068;-41
2022/10/19 04:58:38;;;;;;;5.47;1.58;;;;;;;10.24;74.54;101071.94;5067006;28;20052;-41
2022/10/19 05:01:11;;;;;;;4.78;1.30;;;;;;;10.22;74.15;101068.44;5074064;28;20078;-41
2022/10/19 05:03:38;;;;;;;5.18;1.65;;;;;;;10.12;74.18;101067.44;5076662;28;20071;-41
2022/10/19 05:06:06;;;;;;;2.90;1.00;;;;;;;10.12;74.77;101064.84;5073833;28;20052;-41
2022/10/19 05:08:33;;;;;;;3.13;1.73;;;;;;;10.10;74.33;101074.31;5076959;28;20075;-41
2022/10/19 05:11:11;;;;;;;5.25;1.75;;;;;;;10.03;74.47;101063.84;5078595;28;20083;-41
2022/10/19 05:13:38;;;;;;;4.20;1.08;;;;;;;10.03;74.28;101068.16;5078103;28;20070;-42
2022/10/19 05:16:06;;;;;;;4.82;1.85;;;;;;;10.00;74.17;101079.34;5064929;28;20155;-43
2022/10/19 05:18:33;;;;;;;3.83;1.38;;;;;;;9.93;74.61;101077.47;5062853;28;20072;-42
2022/10/19 05:23:36;;;;;;;5.03;2.60;;;;;;;9.91;74.18;101076.59;5105945;27;20151;-40
2022/10/19 05:28:38;;;;;;;6.15;1.08;;;;;;;9.83;75.29;101075.59;5061592;27;20129;-41
2022/10/19 05:31:10;;;;;;;2.55;1.02;;;;;;;9.83;74.74;101070.44;5059878;28;20079;-41
2022/10/19 05:33:37;;;;;;;2.20;0.95;;;;;;;9.77;74.99;101060.84;5060967;28;20070;-41
2022/10/19 05:38:48;;;;;;;4.47;1.35;;;;;;;9.83;74.64;101060.09;5095432;27;20126;-40
2022/10/19 05:41:16;;;;;;;2.58;1.00;;;;;;;9.84;74.65;101059.22;5063532;28;20131;-40
2022/10/19 05:43:43;;;;;;;3.40;1.77;;;;;;;9.83;75.16;101057.50;5063424;28;20063;-41
2022/10/19 05:46:13;;;;;;;3.72;1.45;;;;;;;9.84;74.80;101062.69;5060955;28;20077;-41
2022/10/19 05:48:40;;;;;;;4.82;1.27;;;;;;;9.86;74.91;101065.31;5057641;28;20049;-42
2022/10/19 05:51:10;;;;;;;3.88;1.02;;;;;;;9.86;74.88;101066.16;5059757;28;20435;-42
2022/10/19 05:53:37;;;;;;;3.05;1.15;;;;;;;9.86;75.43;101062.72;5062060;28;20127;-41
2022/10/19 05:56:14;;;;;;;6.22;1.20;;;;;;;9.82;75.41;101053.16;5060027;28;20127;-41
2022/10/19 05:58:41;;;;;;;4.75;1.08;;;;;;;9.84;74.71;101052.34;5058341;28;20049;-41
2022/10/19 06:01:08;;;;;;;3.65;1.05;;;;;;;9.89;74.88;101049.81;5059763;28;20458;-41
2022/10/19 06:03:35;;;;;;;2.97;1.50;;;;;;;9.91;74.58;101042.97;5055577;28;20084;-41
2022/10/19 06:06:04;;;;;;;3.20;1.50;;;;;;;9.93;75.13;101046.44;5038315;28;20140;-42
2022/10/19 06:08:31;;;;;;;5.20;1.20;;;;;;;9.94;75.01;101044.72;5061477;28;20098;-42
2022/10/19 06:13:42;;;;;;;3.50;0.90;;;;;;;9.95;74.74;101025.75;5116518;27;20572;-41
2022/10/19 06:16:12;;;;;;;3.88;1.10;;;;;;;9.96;75.07;101033.53;5068299;28;20041;-41
2022/10/19 06:18:39;;;;;;;2.47;1.00;;;;;;;9.93;75.31;101027.47;5058826;28;20135;-41
2022/10/19 06:21:09;;;;;;;2.92;0.82;;;;;;;9.89;74.87;101024.81;5050475;28;20041;-41
2022/10/19 06:23:36;;;;;;;4.28;1.27;;;;;;;9.86;75.14;101023.91;5052690;28;20060;-42
2022/10/19 06:26:06;;;;;;;4.65;1.10;;;;;;;9.88;75.18;101022.22;5060843;28;20045;-41
2022/10/19 06:28:33;;;;;;;5.15;1.15;;;;;;;9.84;74.99;101015.25;5057807;28;20133;-47
2022/10/19 06:31:00;;;;;;;9.20;1.20;;;;;;;9.81;75.18;101010.00;5059920;28;20075;-40
2022/10/19 06:33:27;;;;;;;3.53;1.42;;;;;;;9.81;75.04;100999.66;5061590;28;20059;-42
2022/10/19 06:35:54;;;;;;;3.10;1.27;;;;;;;9.80;75.44;101004.00;5057305;28;20079;-40
2022/10/19 06:38:21;;;;;;;4.75;0.52;;;;;;;9.76;75.95;101003.06;5051016;28;20072;-41
2022/10/19 06:40:48;;;;;;;4.78;1.17;;;;;;;9.78;75.48;101000.50;5076703;28;20075;-41
2022/10/19 06:43:15;;;;;;;2.88;0.80;;;;;;;9.76;75.21;101000.47;5069750;28;20075;-41
2022/10/19 06:45:42;;;;;;;2.67;0.88;;;;;;;9.79;75.20;100991.03;5078475;28;20113;-42
2022/10/19 06:48:08;;;;;;;2.90;1.33;;;;;;;9.76;75.09;101005.63;5073460;28;20608;-41
2022/10/19 06:50:35;;;;;;;4.53;1.05;;;;;;;9.76;75.45;101002.16;5069205;28;20061;-42
2022/10/19 06:53:02;;;;;;;4.97;1.05;;;;;;;9.78;75.38;100995.31;5070649;28;20041;-42
2022/10/19 06:55:28;;;;;;;3.60;0.93;;;;;;;9.77;75.68;100993.59;5070345;28;20083;-41
2022/10/19 06:57:57;;;;;;;4.60;1.35;;;;;;;9.76;75.69;100982.34;5078944;28;20075;-42
2022/10/19 07:00:23;;;;;;;2.85;1.13;;;;;;;9.80;76.23;100990.16;5076680;28;20491;-42
2022/10/19 07:02:50;;;;;;;3.30;1.05;;;;;;;9.80;75.72;100987.59;5071768;28;20411;-43
2022/10/19 07:05:17;;;;;;;5.47;1.10;;;;;;;9.82;75.80;100980.69;5082511;28;20072;-42
2022/10/19 07:07:44;;;;;;;2.58;0.98;;;;;;;9.88;75.24;100978.22;5081254;28;20127;-39
2022/10/19 07:10:11;;;;;;;7.93;1.02;;;;;;;9.92;75.34;100979.16;5076708;28;20048;-42
2022/10/19 07:12:38;;;;;;;3.83;1.00;;;;;;;9.96;75.28;100981.78;5073201;28;20610;-42
2022/10/19 07:15:05;;;;;;;4.30;1.23;;;;;;;10.00;75.23;100977.53;5081813;28;20131;-42
2022/10/19 07:17:32;;;;;;;2.67;1.23;;;;;;;9.99;75.28;100987.00;5078744;28;20080;-43
2022/10/19 07:19:59;;;;;;;5.57;1.08;;;;;;;10.05;75.27;100981.06;5082218;28;20094;-39
2022/10/19 07:22:25;;;;;;;4.30;1.02;;;;;;;10.07;75.08;100978.50;5066261;28;20055;-39
2022/10/19 07:24:53;;;;;;;5.40;1.85;;;;;;;10.10;75.40;100973.38;5058066;28;20051;-40
2022/10/19 07:27:20;;;;;;;5.43;1.00;;;;;;;10.13;75.29;100969.09;5058831;28;20048;-40
2022/10/19 07:29:47;;;;;;;6.15;1.13;;;;;;;10.19;75.22;100970.88;5055499;28;20454;-40
2022/10/19 07:32:14;;;;;;;2.78;1.10;;;;;;;10.27;75.51;100964.09;5061584;28;20048;-40
2022/10/19 07:34:40;;;;;;;5.47;1.30;;;;;;;10.36;75.09;100967.66;5056901;28;20064;-41
2022/10/19 07:37:07;;;;;;;6.32;1.38;;;;;;;10.51;75.61;100962.69;5059246;28;20071;-41
2022/10/19 07:39:34;;;;;;;4.25;1.00;;;;;;;10.77;75.34;100953.50;5057458;28;20060;-41
2022/10/19 07:42:00;;;;;;;3.47;0.85;;;;;;;11.09;74.47;100954.69;5065153;28;20124;-40
2022/10/19 07:44:27;;;;;;;4.35;1.10;;;;;;;11.40;73.50;100942.00;5064445;28;20143;-41
2022/10/19 07:46:53;;;;;;;3.50;0.98;;;;;;;11.60;73.58;100946.47;5058001;28;20051;-41
2022/10/19 07:49:21;;;;;;;4.00;1.35;;;;;;;11.67;72.83;100937.88;5060265;28;20068;-41
2022/10/19 07:51:52;;;;;;;3.17;0.90;;;;;;;11.77;72.96;100923.22;5052431;28;20101;-42
2022/10/19 07:54:20;;;;;;;3.08;0.82;;;;;;;11.83;73.80;100908.56;5052481;28;20052;-40
2022/10/19 07:56:46;;;;;;;4.20;0.70;;;;;;;11.88;73.83;100928.47;5053709;28;20045;-40
2022/10/19 07:59:15;;;;;;;6.25;1.20;;;;;;;11.83;72.54;100924.13;5065856;28;20044;-40
2022/10/19 08:01:43;;;;;;;6.40;0.70;;;;;;;11.86;73.10;100923.31;5063160;28;20098;-41
2022/10/19 08:04:10;;;;;;;2.40;0.90;;;;;;;11.76;73.29;100922.34;5063286;28;20049;-40
2022/10/19 08:06:56;;;;;;;2.47;1.05;;;;;;;11.66;74.68;100925.75;5048013;28;20056;-40
2022/10/19 08:09:23;;;;;;;2.83;0.88;;;;;;;11.66;73.67;100918.81;5054915;28;20069;-45
2022/10/19 08:12:09;;;;;;;2.80;0.95;;;;;;;11.72;73.59;100910.22;5056859;28;20041;-42
2022/10/19 08:14:40;;;;;;;5.95;1.23;;;;;;;11.81;73.71;100909.41;5060643;28;20692;-42
2022/10/19 08:17:10;;;;;;;3.80;1.38;;;;;;;11.81;73.61;100915.47;5061157;28;20051;-42
2022/10/19 08:19:41;;;;;;;3.20;0.93;;;;;;;11.75;74.01;100922.38;5051626;28;20057;-39
2022/10/19 08:22:09;;;;;;;2.53;0.60;;;;;;;11.77;74.04;100924.13;5057866;28;20041;-41
2022/10/19 08:24:35;;;;;;;4.40;0.88;;;;;;;11.88;73.04;100920.69;5052993;28;20137;-42
2022/10/19 08:27:02;;;;;;;3.72;0.77;;;;;;;12.04;73.80;100927.72;5057682;28;20060;-41
2022/10/19 08:29:29;;;;;;;3.53;0.70;;;;;;;12.07;73.38;100914.81;5062181;28;20123;-41
2022/10/19 08:31:58;;;;;;;4.32;1.02;;;;;;;12.14;72.89;100917.41;5059812;28;20131;-42
2022/10/19 08:34:24;;;;;;;5.22;0.73;;;;;;;12.14;72.34;100917.41;5061653;28;20527;-42
2022/10/19 08:36:51;;;;;;;4.30;0.93;;;;;;;12.17;72.89;100907.91;5064254;28;20062;-41
2022/10/19 08:39:18;;;;;;;6.40;0.93;;;;;;;12.23;73.12;100904.47;5062592;28;20048;-43
2022/10/19 08:42:11;;;;;;;5.82;0.90;;;;;;;12.17;72.67;100912.22;5056431;28;20120;-42
2022/10/19 08:49:51;;;;;;;5.05;1.73;;;;;;;12.24;71.97;100906.22;5092224;27;20139;-42
2022/10/19 08:52:23;;;;;;;3.53;1.85;;;;;;;12.26;73.02;100907.06;5059889;28;20147;-43
2022/10/19 09:03:23;;;;;;;3.25;1.13;;;;;;;12.50;73.07;100897.63;5071963;27;20702;-45
2022/10/19 09:08:44;;;;;;;3.22;1.02;;;;;;;12.57;72.36;100896.78;5110075;27;20122;-44
2022/10/19 09:11:11;;;;;;;7.40;1.42;;;;;;;12.63;72.85;100908.06;5064187;28;20048;-45
2022/10/19 09:13:43;;;;;;;5.38;0.95;;;;;;;12.60;72.89;100902.00;5057240;28;20049;-49
2022/10/19 09:16:30;;;;;;;5.18;1.35;;;;;;;12.70;71.99;100896.84;5055250;28;20690;-46
2022/10/19 09:18:57;;;;;;;6.72;1.30;;;;;;;12.65;72.14;100893.34;5060187;28;20053;-47
2022/10/19 09:21:33;;;;;;;6.35;1.00;;;;;;;12.67;72.06;100897.66;5059534;28;20098;-47
2022/10/19 09:26:59;;;;;;;4.47;1.00;;;;;;;12.93;71.95;100877.78;5124191;27;20483;-43
2022/10/19 09:32:12;;;;;;;7.22;0.98;;;;;;;12.98;72.06;100886.47;5095199;27;20125;-44
2022/10/19 09:37:21;;;;;;;3.55;0.98;;;;;;;13.03;71.47;100873.47;5088361;27;20134;-43
2022/10/19 09:39:52;;;;;;;9.02;1.67;;;;;;;13.03;71.86;100874.31;5036280;28;20049;-43
2022/10/19 09:42:32;;;;;;;5.80;1.35;;;;;;;13.10;72.31;100886.47;5022367;28;20520;-43
2022/10/19 09:45:10;;;;;;;3.13;0.90;;;;;;;13.18;71.13;100888.19;5021500;28;20042;-44
2022/10/19 09:47:39;;;;;;;5.90;1.40;;;;;;;13.35;71.38;100886.44;5018717;28;20493;-42
2022/10/19 09:52:42;;;;;;;4.93;1.92;;;;;;;13.68;70.45;100877.78;5075270;28;20513;-45
2022/10/19 09:57:57;;;;;;;3.95;1.23;;;;;;;14.04;70.08;100886.34;5092654;27;20137;-43
2022/10/19 10:00:31;;;;;;;3.67;0.65;;;;;;;14.13;69.28;100875.91;5060070;28;20055;-44
2022/10/19 10:02:57;;;;;;;3.15;0.98;;;;;;;14.14;68.24;100880.22;5060940;28;20132;-44
2022/10/19 10:05:35;;;;;;;2.70;0.75;;;;;;;14.36;68.19;100867.06;5058024;28;20562;-43
2022/10/19 10:08:11;;;;;;;2.15;0.65;;;;;;;14.69;67.94;100858.22;5043297;28;20131;-45
2022/10/19 10:10:43;;;;;;;3.60;0.73;;;;;;;15.04;67.14;100846.69;5062187;28;20134;-46
2022/10/19 10:13:17;;;;;;;8.07;1.02;;;;;;;15.25;65.94;100842.13;5058677;28;20098;-45
2022/10/19 10:15:50;;;;;;;6.05;0.90;;;;;;;15.54;65.72;100838.38;5039275;28;24613;-45
2022/10/19 10:18:18;;;;;;;6.07;1.25;;;;;;;15.57;65.22;100835.72;5062885;28;20102;-44
2022/10/19 10:23:38;;;;;;;4.75;1.33;;;;;;;15.04;64.59;100838.84;5126297;27;20130;-43
2022/10/19 10:26:16;;;;;;;3.50;0.82;;;;;;;14.83;65.35;100843.34;5060608;28;20045;-44
2022/10/19 10:28:48;;;;;;;6.05;1.33;;;;;;;14.71;65.67;100848.63;5061076;28;20072;-44
2022/10/19 10:31:22;;;;;;;4.05;0.82;;;;;;;14.78;65.92;100845.13;5061921;28;20131;-44
2022/10/19 10:33:56;;;;;;;2.95;0.73;;;;;;;14.86;66.04;100850.31;5063424;28;20054;-41
2022/10/19 10:36:42;;;;;;;5.90;1.25;;;;;;;14.73;65.05;100849.50;5059312;28;20615;-42
2022/10/19 10:39:15;;;;;;;2.65;0.65;;;;;;;14.68;65.72;100856.47;5039861;28;20136;-43
2022/10/19 10:41:43;;;;;;;6.20;1.23;;;;;;;14.50;66.03;100853.13;5042151;28;20772;-44
2022/10/19 10:44:19;;;;;;;2.72;0.95;;;;;;;14.58;66.39;100853.94;5042634;28;20144;-46
2022/10/19 10:46:52;;;;;;;4.80;1.25;;;;;;;14.55;66.26;100846.13;5039351;28;20045;-44
2022/10/19 10:49:23;;;;;;;5.13;1.35;;;;;;;14.58;66.51;100835.69;5040199;28;20136;-47
2022/10/19 10:51:55;;;;;;;3.78;1.35;;;;;;;14.69;66.46;100837.34;5037562;28;20042;-43
2022/10/19 10:54:26;;;;;;;5.05;2.08;;;;;;;14.80;66.87;100834.69;5042041;28;20144;-43
2022/10/19 10:59:38;;;;;;;11.43;2.70;;;;;;;14.82;66.72;100839.00;5112855;27;20380;-45
2022/10/19 11:02:36;;;;;;;5.28;2.08;;;;;;;14.97;66.72;100822.41;5055331;28;20064;-43
2022/10/19 11:05:10;;;;;;;5.10;1.10;;;;;;;15.12;66.15;100831.81;5056717;28;20471;-44
2022/10/19 11:07:43;;;;;;;2.38;2.17;;;;;;;15.07;64.74;100825.78;5058873;28;20052;-45
2022/10/19 11:10:35;;;;;;;4.57;2.25;;;;;;;14.90;63.68;100832.00;5058535;28;20048;-44
2022/10/19 11:13:16;;;;;;;10.13;3.05;;;;;;;14.85;64.31;100812.91;5044935;28;20040;-44
2022/10/19 11:15:52;;;;;;;3.95;2.22;;;;;;;14.87;64.71;100805.09;5054342;28;20056;-43
2022/10/19 11:18:33;;;;;;;7.45;2.25;;;;;;;14.97;64.17;100795.44;5048213;28;20080;-43
2022/10/19 11:31:40;;;;;;;4.28;0.98;;;;;;;15.02;63.85;100771.03;5023291;27;20138;-47
2022/10/19 11:36:52;;;;;;;5.68;2.55;;;;;;;14.97;64.38;100769.34;5091560;27;20134;-42
2022/10/19 11:39:32;;;;;;;3.13;2.28;;;;;;;14.83;64.32;100756.44;5037113;28;20045;-43
2022/10/19 11:47:42;;;;;;;3.40;1.08;;;;;;;14.70;64.49;100735.66;5113774;27;20189;-44
2022/10/19 12:00:56;;;;;;;4.07;0.70;;;;;;;14.85;64.66;100713.81;5112442;27;20133;-44
2022/10/19 12:14:17;;;;;;;5.07;0.60;;;;;;;14.98;63.52;100656.28;5093199;27;20408;-43
2022/10/19 12:16:49;;;;;;;4.57;0.70;;;;;;;14.96;63.39;100648.50;5078862;28;20040;-41
2022/10/19 12:19:20;;;;;;;3.03;0.52;;;;;;;14.99;62.43;100639.75;5074810;28;20040;-45
2022/10/19 12:21:48;;;;;;;2.22;0.95;;;;;;;15.00;62.88;100624.09;5077740;28;20082;-44
2022/10/19 12:24:19;;;;;;;4.60;0.88;;;;;;;14.99;63.08;100614.53;5071600;28;20648;-48
2022/10/19 12:26:46;;;;;;;2.58;0.55;;;;;;;15.05;62.59;100616.22;5075984;28;20103;-46
2022/10/19 12:29:25;;;;;;;2.75;0.50;;;;;;;14.92;61.41;100607.69;5083214;28;20106;-45
2022/10/19 12:31:54;;;;;;;1.90;0.50;;;;;;;14.98;61.53;100614.56;5079147;28;20047;-48
2022/10/19 12:34:59;;;;;;;9.55;2.15;;;;;;;14.99;61.52;100605.84;5078547;28;20080;-44
2022/10/19 12:40:23;;;;;;;3.35;2.03;;;;;;;15.12;61.69;100583.09;5079105;27;20155;-43
2022/10/19 12:45:34;;;;;;;1.50;0.50;;;;;;;15.28;62.16;100570.69;5060940;27;20125;-45
2022/10/19 12:53:35;;;;;;;6.20;1.00;;;;;;;15.28;61.47;100566.38;5067939;27;20131;-44
2022/10/19 13:04:29;;;;;;;3.67;0.95;;;;;;;15.08;61.46;100558.78;5083629;27;20393;-44
2022/10/19 13:09:37;;;;;;;2.85;1.17;;;;;;;15.00;62.09;100550.22;5094920;27;20218;-43
2022/10/19 13:15:00;;;;;;;3.90;1.90;;;;;;;15.04;61.21;100546.69;5083047;27;20128;-43
2022/10/19 13:23:09;;;;;;;5.13;1.40;;;;;;;15.54;60.31;100515.50;5114636;27;20396;-43
2022/10/19 13:25:38;;;;;;;6.78;3.15;;;;;;;15.41;60.83;100508.75;5052057;28;20096;-42
2022/10/19 13:36:08;;;;;;;6.40;1.05;;;;;;;15.33;59.98;100490.59;5118076;27;20574;-45
2022/10/19 14:01:16;;;;;;;6.03;0.98;;;;;;;15.27;57.31;100444.56;5110877;27;20128;-46
2022/10/19 14:09:34;;;;;;;5.03;0.75;;;;;;;15.23;57.36;100434.22;5099983;27;20144;-42
2022/10/19 14:12:21;;;;;;;4.43;1.08;;;;;;;15.21;58.43;100422.94;5065982;28;20076;-45
2022/10/19 14:14:49;;;;;;;3.03;0.57;;;;;;;15.20;58.60;100416.00;5040806;28;20580;-43
2022/10/19 14:17:19;;;;;;;5.47;1.10;;;;;;;15.23;57.72;100406.38;5034743;28;20129;-43
2022/10/19 14:19:51;;;;;;;5.10;0.55;;;;;;;15.17;57.59;100403.88;5040794;28;20045;-44
2022/10/19 14:25:00;;;;;;;5.40;1.75;;;;;;;15.24;57.95;100409.84;5067730;27;20134;-43
2022/10/19 14:27:29;;;;;;;4.38;1.55;;;;;;;15.37;57.75;100403.53;5062562;28;20095;-45
2022/10/19 14:29:56;;;;;;;2.10;1.48;;;;;;;15.40;57.54;100403.47;5062860;28;20110;-44
2022/10/19 14:32:25;;;;;;;5.20;1.60;;;;;;;15.42;57.09;100396.50;5063705;28;20132;-43
2022/10/19 14:34:53;;;;;;;;;;;;;;;15.32;56.82;100394.94;5059090;28;20092;-44
2022/10/19 14:37:24;;;;;;;5.03;1.50;;;;;;;15.44;57.07;100386.03;5060577;28;19920;-43
2022/10/19 14:40:31;;;;;;;3.72;1.02;;;;;;;15.35;56.84;100374.00;5057974;28;20102;-44
2022/10/19 14:42:59;;;;;;;2.22;1.77;;;;;;;15.33;57.04;100369.69;5037738;28;20052;-44
2022/10/19 14:45:28;;;;;;;2.78;1.45;;;;;;;15.36;57.03;100370.50;5085785;28;20076;-43